Terminal Aerodrome Forecast
Issued by NWS Memphis, TN

Home | Current Version | Previous Version | Text Only | Print | Product List | Glossary On
Versions: 1 2 3 4 5 6 7 8 9 10 11 12 13 14 15 16 17 18 19 20 21 22
467
FTUS44 KMEG 270522
TAFMEM
TAF
KMEM 270522Z 2706/2806 29011KT P6SM FEW007 BKN015
     FM271400 28008KT P6SM OVC035
     FM271700 25007KT P6SM SCT250
     FM280000 15007KT P6SM BKN250=

USA.gov is the U.S. government's official web portal to all federal, state and local government web resources and services.